createdAt,value
2022-11-30T00:01:56.345Z,17.4
2022-11-30T00:04:58.257Z,19.6
2022-11-30T00:08:00.247Z,16.5
2022-11-30T00:11:02.169Z,14.8
2022-11-30T00:14:04.145Z,16.8
2022-11-30T00:17:06.157Z,17.6
2022-11-30T00:20:08.071Z,14.1
2022-11-30T00:23:10.025Z,13.1
2022-11-30T00:26:12.000Z,16
2022-11-30T00:29:13.936Z,13.1
2022-11-30T00:32:15.906Z,14.5
2022-11-30T00:35:17.876Z,14.7
2022-11-30T00:38:19.826Z,13.3
2022-11-30T00:41:21.802Z,14.6
2022-11-30T00:44:23.764Z,15.6
2022-11-30T00:47:25.732Z,14.6
2022-11-30T00:50:27.688Z,16.3
2022-11-30T00:53:29.652Z,16.6
2022-11-30T00:56:31.614Z,16.6
2022-11-30T00:59:33.626Z,16.4
2022-11-30T01:02:35.670Z,16.8
2022-11-30T01:05:37.530Z,17.1
2022-11-30T01:08:39.491Z,18.1
2022-11-30T01:11:41.459Z,15.9
2022-11-30T01:14:43.420Z,17.3
2022-11-30T01:17:45.375Z,18.2
2022-11-30T01:20:47.348Z,17.3
2022-11-30T01:23:49.282Z,17.6
2022-11-30T01:26:51.275Z,17.5
2022-11-30T01:29:53.233Z,18
2022-11-30T01:32:55.201Z,18.9
2022-11-30T01:35:57.164Z,17.2
2022-11-30T01:38:59.125Z,17.7
2022-11-30T01:42:04.150Z,17.6
2022-11-30T01:45:06.103Z,18.1
2022-11-30T01:48:08.079Z,18
2022-11-30T01:51:10.029Z,18.2
2022-11-30T01:54:11.993Z,18.1
2022-11-30T01:57:13.958Z,17.6
2022-11-30T02:00:15.928Z,18.9
2022-11-30T02:03:17.878Z,17.3
2022-11-30T02:06:19.893Z,18.2
2022-11-30T02:09:21.827Z,17.1
2022-11-30T02:12:23.796Z,18.1
2022-11-30T02:15:25.833Z,19.3
2022-11-30T02:18:27.735Z,16.4
2022-11-30T02:21:29.702Z,17.4
2022-11-30T02:24:31.650Z,19.1
2022-11-30T02:27:33.632Z,18.9
2022-11-30T02:30:35.611Z,19.6
2022-11-30T02:33:37.559Z,19.3
2022-11-30T02:36:39.525Z,18.9
2022-11-30T02:39:41.486Z,19.9
2022-11-30T02:42:43.460Z,19.5
2022-11-30T02:45:45.430Z,18.4
2022-11-30T02:48:47.375Z,20.5
2022-11-30T02:51:49.334Z,20.4
2022-11-30T02:54:51.302Z,19.7
2022-11-30T02:57:53.278Z,20.4
2022-11-30T03:00:55.262Z,20.1
2022-11-30T03:03:57.262Z,18.1
2022-11-30T03:06:59.227Z,18.6
2022-11-30T03:10:01.195Z,17.5
2022-11-30T03:13:03.155Z,16.8
2022-11-30T03:16:05.205Z,20.4
2022-11-30T03:19:07.084Z,19.7
2022-11-30T03:22:09.050Z,20.3
2022-11-30T03:25:11.007Z,20
2022-11-30T03:28:12.962Z,20.7
2022-11-30T03:31:14.946Z,20.9
2022-11-30T03:34:16.903Z,18.3
2022-11-30T03:37:18.877Z,18.5
2022-11-30T03:40:20.927Z,17.4
2022-11-30T03:43:22.789Z,18.2
2022-11-30T03:46:24.851Z,19.9
2022-11-30T03:49:26.722Z,20.4
2022-11-30T03:52:28.682Z,18.6
2022-11-30T03:55:30.663Z,17.9
2022-11-30T03:58:32.638Z,16.9
2022-11-30T04:01:34.629Z,19.7
2022-11-30T04:04:36.570Z,20.1
2022-11-30T04:07:38.589Z,19.6
2022-11-30T04:10:40.509Z,19.6
2022-11-30T04:13:42.470Z,19.8
2022-11-30T04:16:44.414Z,20.2
2022-11-30T04:19:46.373Z,19.2
2022-11-30T04:22:48.336Z,20.9
2022-11-30T04:25:50.303Z,19.2
2022-11-30T04:28:52.280Z,16.8
2022-11-30T04:31:54.248Z,15.1
2022-11-30T04:34:56.221Z,18
2022-11-30T04:37:58.186Z,17.1
2022-11-30T04:41:00.149Z,19.8
2022-11-30T04:44:02.113Z,18.9
2022-11-30T04:47:04.094Z,15.2
2022-11-30T04:50:06.074Z,14.3
2022-11-30T04:53:08.018Z,16.5
2022-11-30T04:56:09.975Z,15.8
2022-11-30T04:59:11.935Z,15
2022-11-30T05:02:13.917Z,14.5
2022-11-30T05:05:15.887Z,16
2022-11-30T05:08:17.838Z,14.7
2022-11-30T05:11:19.827Z,15.2
2022-11-30T05:14:21.765Z,15.7
2022-11-30T05:17:23.747Z,14.9
2022-11-30T05:20:25.730Z,15.6
2022-11-30T05:23:27.685Z,15.2
2022-11-30T05:26:29.650Z,17.4
2022-11-30T05:29:31.626Z,15.4
2022-11-30T05:32:33.582Z,16
2022-11-30T05:35:35.549Z,16.5
2022-11-30T05:38:37.512Z,16.4
2022-11-30T05:41:39.472Z,18.7
2022-11-30T05:44:41.446Z,15.9
2022-11-30T05:47:43.397Z,17.6
2022-11-30T05:50:45.383Z,16.3
2022-11-30T05:53:47.343Z,15.4
2022-11-30T05:56:54.352Z,15.9
2022-11-30T05:59:51.262Z,19.3
2022-11-30T06:02:53.324Z,19.5
2022-11-30T06:05:55.229Z,18.6
2022-11-30T06:08:57.138Z,18.6
2022-11-30T06:11:59.103Z,17.2
2022-11-30T06:15:01.079Z,18.4
2022-11-30T06:18:03.028Z,17.5
2022-11-30T06:21:04.996Z,17.3
2022-11-30T06:24:06.947Z,18.3
2022-11-30T06:27:08.917Z,17.3
2022-11-30T06:30:10.870Z,15.5
2022-11-30T06:33:12.828Z,19.6
2022-11-30T06:36:14.819Z,18.9
2022-11-30T06:39:16.785Z,18.6
2022-11-30T06:42:18.769Z,19
2022-11-30T06:45:20.935Z,18.3
2022-11-30T06:48:22.690Z,19.4
2022-11-30T06:51:24.657Z,19.4
2022-11-30T06:54:26.639Z,19.2
2022-11-30T06:57:28.584Z,17.5
2022-11-30T07:00:30.550Z,17.4
2022-11-30T07:03:32.510Z,17.9
2022-11-30T07:06:34.457Z,16.7
2022-11-30T07:09:36.456Z,20.1
2022-11-30T07:12:38.408Z,19.2
2022-11-30T07:15:40.377Z,20.7
2022-11-30T07:18:42.339Z,19
2022-11-30T07:21:44.298Z,18.3
2022-11-30T07:24:46.516Z,18.4
2022-11-30T07:27:48.235Z,19
2022-11-30T07:30:50.187Z,17
2022-11-30T07:33:52.161Z,16.4
2022-11-30T07:36:54.127Z,16
2022-11-30T07:39:56.093Z,16.2
2022-11-30T07:42:58.053Z,15.5
2022-11-30T07:46:00.364Z,14.8
2022-11-30T07:49:01.979Z,15.9
2022-11-30T07:52:03.932Z,14.8
2022-11-30T07:55:05.915Z,16.3
2022-11-30T07:58:08.611Z,16
2022-11-30T08:01:09.940Z,13.6
2022-11-30T08:04:11.880Z,14.2
2022-11-30T08:07:13.769Z,12.5
2022-11-30T08:10:15.730Z,11.9
2022-11-30T08:13:17.709Z,10.8
2022-11-30T08:16:19.710Z,12.8
2022-11-30T08:19:21.624Z,14.9
2022-11-30T08:22:23.585Z,11.9
2022-11-30T08:25:25.577Z,11.9
2022-11-30T08:28:27.526Z,11
2022-11-30T08:31:29.537Z,10.6
2022-11-30T08:34:31.740Z,9.7
2022-11-30T08:37:33.431Z,9.4
2022-11-30T08:40:35.391Z,9
2022-11-30T08:43:37.359Z,9.4
2022-11-30T08:46:52.045Z,10
2022-11-30T08:49:41.292Z,11.3
2022-11-30T08:52:43.260Z,12.5
2022-11-30T08:55:45.232Z,11.2
2022-11-30T08:58:47.198Z,11.3
2022-11-30T09:01:49.155Z,12.6
2022-11-30T09:04:51.442Z,13.1
2022-11-30T09:07:53.210Z,13
2022-11-30T09:10:55.064Z,13.4
2022-11-30T09:13:57.063Z,16.4
2022-11-30T09:16:58.997Z,17.3
2022-11-30T09:20:00.989Z,15.4
2022-11-30T09:23:02.952Z,18.9
2022-11-30T09:26:04.911Z,19.8
2022-11-30T09:29:06.877Z,19
2022-11-30T09:32:08.839Z,17.9
2022-11-30T09:35:12.876Z,18.7
2022-11-30T09:38:12.754Z,16.8
2022-11-30T09:41:14.747Z,17.5
2022-11-30T09:44:16.697Z,18.5
2022-11-30T09:47:18.667Z,17.1
2022-11-30T09:50:20.623Z,18.1
2022-11-30T09:53:27.762Z,22.5
2022-11-30T09:56:24.530Z,19.1
2022-11-30T09:59:26.524Z,18.4
2022-11-30T10:02:28.665Z,19.8
2022-11-30T10:05:30.438Z,17.7
2022-11-30T10:08:32.417Z,21.9
2022-11-30T10:11:34.380Z,20.7
2022-11-30T10:14:36.346Z,19.4
2022-11-30T10:17:38.297Z,17.9
2022-11-30T10:20:40.270Z,19.2
2022-11-30T10:23:42.239Z,19.8
2022-11-30T10:26:44.227Z,18
2022-11-30T10:29:46.189Z,20.2
2022-11-30T10:32:48.144Z,17.8
2022-11-30T10:35:50.105Z,18.7
2022-11-30T10:38:52.076Z,18.9
2022-11-30T10:41:54.061Z,19.3
2022-11-30T10:44:55.989Z,17.8
2022-11-30T10:47:58.615Z,18.5
2022-11-30T10:50:59.969Z,15.5
2022-11-30T10:54:01.921Z,18.7
2022-11-30T10:57:03.879Z,17.1
2022-11-30T11:00:05.840Z,16.4
2022-11-30T11:03:07.860Z,16.3
2022-11-30T11:06:09.754Z,16.4
2022-11-30T11:09:11.726Z,14.6
2022-11-30T11:12:13.681Z,16.2
2022-11-30T11:15:15.651Z,14.4
2022-11-30T11:18:17.634Z,14
2022-11-30T11:21:19.594Z,15.3
2022-11-30T11:24:21.558Z,14
2022-11-30T11:27:23.516Z,13
2022-11-30T11:30:25.487Z,20.4
2022-11-30T11:33:27.514Z,14.8
2022-11-30T11:36:29.417Z,16.1
2022-11-30T11:39:31.359Z,17.6
2022-11-30T11:42:33.318Z,15.5
2022-11-30T11:45:35.293Z,16.4
2022-11-30T11:48:37.256Z,17.2
2022-11-30T11:51:39.207Z,16.6
2022-11-30T11:54:41.169Z,19
2022-11-30T11:57:43.141Z,17.3
2022-11-30T12:00:45.086Z,20.1
2022-11-30T12:03:47.071Z,20.1
2022-11-30T12:06:49.019Z,21.6
2022-11-30T12:09:51.056Z,21.3
2022-11-30T12:12:54.916Z,22.1
2022-11-30T12:15:54.976Z,22.3
2022-11-30T12:18:56.889Z,21.6
2022-11-30T12:21:58.866Z,20.5
2022-11-30T12:25:05.621Z,18
2022-11-30T12:28:02.797Z,18.4
2022-11-30T12:31:04.823Z,20.1
2022-11-30T12:34:06.715Z,20.6
2022-11-30T12:37:08.718Z,19.2
2022-11-30T12:40:10.635Z,17.6
2022-11-30T12:43:12.612Z,23.2
2022-11-30T12:46:14.650Z,21.3
2022-11-30T12:49:16.590Z,19.9
2022-11-30T12:52:18.488Z,20.4
2022-11-30T12:55:20.460Z,21.4
2022-11-30T12:58:22.529Z,21.5
2022-11-30T13:01:24.478Z,20.9
2022-11-30T13:04:26.412Z,15.9
2022-11-30T13:07:28.416Z,20.5
2022-11-30T13:10:30.334Z,19.3
2022-11-30T13:13:32.284Z,22.8
2022-11-30T13:16:34.310Z,21.9
2022-11-30T13:19:36.209Z,20
2022-11-30T13:22:38.174Z,19.3
2022-11-30T13:26:06.660Z,20.2
2022-11-30T13:28:42.124Z,21.7
2022-11-30T13:31:44.147Z,20.5
2022-11-30T13:34:46.359Z,21
2022-11-30T13:37:48.011Z,18.2
2022-11-30T13:40:49.977Z,18.5
2022-11-30T13:43:51.932Z,20.6
2022-11-30T13:46:53.968Z,19.2
2022-11-30T13:49:55.866Z,19.3
2022-11-30T13:52:57.867Z,17.5
2022-11-30T13:55:59.791Z,18.7
2022-11-30T13:59:01.745Z,17.3
2022-11-30T14:02:03.935Z,16.7
2022-11-30T14:05:05.685Z,18.1
2022-11-30T14:08:07.714Z,18.5
2022-11-30T14:11:09.636Z,16.5
2022-11-30T14:14:11.607Z,18.6
2022-11-30T14:17:13.574Z,18.1
2022-11-30T14:20:15.526Z,18.5
2022-11-30T14:23:17.485Z,17.8
2022-11-30T14:26:19.440Z,16.5
2022-11-30T14:29:21.439Z,19.9
2022-11-30T14:32:23.391Z,18.2
2022-11-30T14:35:25.343Z,16.4
2022-11-30T14:38:27.293Z,14.3
2022-11-30T14:41:29.265Z,17.4
2022-11-30T14:44:31.215Z,17
2022-11-30T14:47:33.203Z,14.6
2022-11-30T14:50:35.184Z,17.4
2022-11-30T14:53:37.142Z,17.4
2022-11-30T14:56:39.080Z,17
2022-11-30T14:59:41.065Z,14.5
2022-11-30T15:02:43.024Z,15
2022-11-30T15:05:44.967Z,18.4
2022-11-30T15:08:46.965Z,18
2022-11-30T15:11:48.932Z,17.1
2022-11-30T15:14:50.912Z,14.2
2022-11-30T15:17:52.862Z,12.8
2022-11-30T15:20:54.861Z,12.5
2022-11-30T15:23:56.807Z,12.3
2022-11-30T15:26:58.829Z,12.4
2022-11-30T15:30:01.007Z,13.6
2022-11-30T15:33:02.732Z,13.5
2022-11-30T15:36:19.056Z,13.4
2022-11-30T15:39:06.753Z,12.3
2022-11-30T15:42:08.647Z,14.8
2022-11-30T15:45:10.600Z,12.3
2022-11-30T15:48:12.583Z,12.6
2022-11-30T15:51:14.548Z,14.4
2022-11-30T15:54:16.558Z,12.9
2022-11-30T15:57:18.500Z,11.7
2022-11-30T16:00:20.464Z,9.3
2022-11-30T16:03:22.419Z,8.9
2022-11-30T16:06:24.393Z,8.7
2022-11-30T16:09:26.347Z,8
2022-11-30T16:12:28.296Z,7
2022-11-30T16:15:30.270Z,8.2
2022-11-30T16:18:32.247Z,8.1
2022-11-30T16:21:34.199Z,8.1
2022-11-30T16:24:36.189Z,7.9
2022-11-30T16:27:38.138Z,8.9
2022-11-30T16:30:40.101Z,7.6
2022-11-30T16:33:42.079Z,7.7
2022-11-30T16:36:44.035Z,8.5
2022-11-30T16:39:46.334Z,11.7
2022-11-30T16:42:47.959Z,10.7
2022-11-30T16:45:50.008Z,10.8
2022-11-30T16:48:51.923Z,11.6
2022-11-30T16:51:53.895Z,11.9
2022-11-30T16:54:55.878Z,11.2
2022-11-30T16:57:57.834Z,14
2022-11-30T17:00:59.845Z,13.4
2022-11-30T17:04:01.756Z,12.9
2022-11-30T17:07:03.743Z,15.3
2022-11-30T17:10:05.716Z,14.2
2022-11-30T17:13:07.697Z,15.7
2022-11-30T17:16:09.707Z,13.3
2022-11-30T17:19:11.617Z,14.2
2022-11-30T17:22:13.569Z,16.7
2022-11-30T17:25:15.546Z,13.3
2022-11-30T17:28:17.557Z,14
2022-11-30T17:31:19.573Z,18.1
2022-11-30T17:34:21.451Z,18.4
2022-11-30T17:37:23.519Z,17
2022-11-30T17:40:25.385Z,15.2
2022-11-30T17:43:27.329Z,15.6
2022-11-30T17:46:29.355Z,17.4
2022-11-30T17:49:31.308Z,17.5
2022-11-30T17:52:33.247Z,16.8
2022-11-30T17:55:35.225Z,16.4
2022-11-30T17:58:40.205Z,18.2
2022-11-30T18:01:39.288Z,16.1
2022-11-30T18:04:41.105Z,17.9
2022-11-30T18:07:43.099Z,17.9
2022-11-30T18:10:45.020Z,14
2022-11-30T18:13:47.023Z,16.7
2022-11-30T18:16:49.004Z,18.6
2022-11-30T18:19:50.917Z,18.3
2022-11-30T18:22:52.886Z,18.1
2022-11-30T18:25:54.837Z,16.7
2022-11-30T18:28:56.838Z,17.1
2022-11-30T18:31:58.826Z,17.3
2022-11-30T18:35:00.785Z,17.6
2022-11-30T18:38:02.747Z,15.8
2022-11-30T18:41:04.711Z,15.7
2022-11-30T18:44:06.695Z,18.4
2022-11-30T18:47:08.652Z,18.5
2022-11-30T18:50:10.620Z,16.3
2022-11-30T18:53:16.653Z,17.4
2022-11-30T18:56:14.537Z,16.8
2022-11-30T18:59:16.524Z,17.2
2022-11-30T19:02:18.826Z,16.6
2022-11-30T19:05:20.446Z,19.2
2022-11-30T19:08:22.400Z,16.8
2022-11-30T19:11:24.364Z,15.8
2022-11-30T19:14:26.323Z,15.2
2022-11-30T19:17:28.288Z,16.9
2022-11-30T19:20:30.246Z,17.4
2022-11-30T19:23:32.228Z,17.1
2022-11-30T19:26:34.187Z,15.9
2022-11-30T19:29:36.160Z,15.7
2022-11-30T19:32:38.113Z,17
2022-11-30T19:35:40.075Z,16.2
2022-11-30T19:38:42.072Z,16.3
2022-11-30T19:41:44.013Z,17.4
2022-11-30T19:44:46.156Z,17.6
2022-11-30T19:47:47.953Z,16.5
2022-11-30T19:50:49.907Z,17.5
2022-11-30T19:53:51.897Z,15.5
2022-11-30T19:56:53.890Z,14.7
2022-11-30T19:59:55.826Z,14.8
2022-11-30T20:02:57.826Z,13.7
2022-11-30T20:05:59.802Z,13.1
2022-11-30T20:09:01.746Z,15.3
2022-11-30T20:12:03.693Z,16.4
2022-11-30T20:15:05.689Z,15
2022-11-30T20:18:07.622Z,13.9
2022-11-30T20:21:09.592Z,15.7
2022-11-30T20:24:11.578Z,14.8
2022-11-30T20:27:13.553Z,13.4
2022-11-30T20:30:15.508Z,16.3
2022-11-30T20:33:17.451Z,16.4
2022-11-30T20:36:19.427Z,13.7
2022-11-30T20:39:21.433Z,15.2
2022-11-30T20:42:23.345Z,15.9
2022-11-30T20:45:25.341Z,15.3
2022-11-30T20:48:27.292Z,15.5
2022-11-30T20:51:31.038Z,14
2022-11-30T20:54:31.213Z,12.5
2022-11-30T20:57:33.151Z,13.9
2022-11-30T21:00:35.134Z,11.7
2022-11-30T21:03:37.093Z,12.1
2022-11-30T21:06:39.055Z,13.2
2022-11-30T21:09:41.025Z,11.8
2022-11-30T21:12:43.007Z,10.8
2022-11-30T21:15:45.015Z,10.6
2022-11-30T21:18:46.946Z,12.3
2022-11-30T21:21:48.895Z,12.6
2022-11-30T21:24:50.856Z,12.2
2022-11-30T21:27:52.824Z,10.8
2022-11-30T21:30:54.882Z,9.6
2022-11-30T21:33:56.788Z,9.4
2022-11-30T21:36:58.718Z,10.2
2022-11-30T21:40:00.789Z,9.2
2022-11-30T21:43:02.647Z,11.3
2022-11-30T21:46:04.690Z,10.7
2022-11-30T21:49:06.583Z,10.7
2022-11-30T21:52:08.547Z,11.8
2022-11-30T21:55:10.499Z,9.7
2022-11-30T21:58:12.487Z,9.9
2022-11-30T22:01:14.447Z,9.7
2022-11-30T22:04:16.550Z,10.5
2022-11-30T22:07:18.551Z,12.1
2022-11-30T22:10:20.352Z,10.6
2022-11-30T22:13:22.418Z,9.9
2022-11-30T22:16:24.356Z,11.2
2022-11-30T22:19:26.239Z,10.9
2022-11-30T22:22:28.216Z,13.5
2022-11-30T22:25:30.178Z,13.1
2022-11-30T22:28:32.142Z,11.8
2022-11-30T22:31:34.200Z,13
2022-11-30T22:34:36.082Z,13.4
2022-11-30T22:37:38.061Z,14.2
2022-11-30T22:40:40.032Z,13
2022-11-30T22:43:41.994Z,15.5
2022-11-30T22:46:44.048Z,13.5
2022-11-30T22:49:46.321Z,15.1
2022-11-30T22:55:49.954Z,15.6
2022-11-30T22:58:51.823Z,14.3
2022-11-30T23:01:53.795Z,13.8
2022-11-30T23:04:55.738Z,11.9
2022-11-30T23:07:57.736Z,12.3
2022-11-30T23:10:59.679Z,12.6
2022-11-30T23:14:01.658Z,12.3
2022-11-30T23:17:03.596Z,13.2
2022-11-30T23:20:05.561Z,13
2022-11-30T23:23:07.508Z,14.3
2022-11-30T23:26:09.474Z,14.9
2022-11-30T23:29:11.432Z,13.2
2022-11-30T23:32:13.420Z,14
2022-11-30T23:35:15.360Z,13.2
2022-11-30T23:38:17.339Z,14.3
2022-11-30T23:41:19.303Z,12.9
2022-11-30T23:44:21.251Z,13.1
2022-11-30T23:47:23.217Z,12.5
2022-11-30T23:50:25.181Z,13.5
2022-11-30T23:53:27.147Z,12.5
2022-11-30T23:56:29.121Z,12.1
2022-11-30T23:59:31.080Z,13.4
